createdAt,value
2022-09-28T00:01:07.644Z,12.93
2022-09-28T00:03:35.870Z,11.77
2022-09-28T00:06:05.040Z,14.13
2022-09-28T00:08:35.032Z,12.57
2022-09-28T00:11:04.117Z,11.13
2022-09-28T00:13:32.950Z,10.85
2022-09-28T00:16:02.848Z,12.63
2022-09-28T00:18:31.787Z,11.38
2022-09-28T00:21:05.817Z,11.00
2022-09-28T00:23:56.396Z,8.02
2022-09-28T00:26:24.724Z,7.53
2022-09-28T00:28:53.091Z,8.73
2022-09-28T00:31:21.529Z,8.52
2022-09-28T00:33:51.353Z,7.22
2022-09-28T00:36:19.668Z,9.80
2022-09-28T00:38:48.898Z,9.48
2022-09-28T00:41:18.518Z,6.90
2022-09-28T00:43:46.372Z,10.57
2022-09-28T00:46:19.850Z,10.55
2022-09-28T00:48:53.800Z,6.38
2022-09-28T00:51:22.709Z,6.85
2022-09-28T00:53:52.988Z,6.63
2022-09-28T00:56:25.031Z,6.80
2022-09-28T00:58:55.179Z,10.32
2022-09-28T01:01:23.890Z,7.03
2022-09-28T01:03:52.169Z,5.03
2022-09-28T01:06:23.892Z,7.70
2022-09-28T01:08:54.786Z,9.10
2022-09-28T01:11:22.858Z,6.40
2022-09-28T01:13:53.055Z,4.10
2022-09-28T01:16:29.634Z,3.60
2022-09-28T01:19:10.617Z,11.18
2022-09-28T01:21:51.200Z,6.22
2022-09-28T01:24:39.641Z,5.82
2022-09-28T01:27:14.336Z,7.78
2022-09-28T01:29:50.934Z,8.32
2022-09-28T01:32:28.784Z,7.38
2022-09-28T01:35:02.939Z,6.80
2022-09-28T01:37:40.865Z,7.35
2022-09-28T01:40:11.760Z,7.40
2022-09-28T01:42:44.535Z,9.10
2022-09-28T01:45:18.364Z,8.45
2022-09-28T01:47:47.821Z,8.00
2022-09-28T01:50:19.656Z,7.57
2022-09-28T01:52:52.897Z,8.27
2022-09-28T01:55:29.524Z,11.43
2022-09-28T01:58:04.528Z,6.75
2022-09-28T02:00:34.942Z,10.02
2022-09-28T02:03:09.456Z,7.20
2022-09-28T02:05:49.054Z,8.45
2022-09-28T02:08:24.917Z,7.95
2022-09-28T02:10:57.988Z,7.22
2022-09-28T02:13:32.449Z,7.28
2022-09-28T02:16:06.870Z,6.57
2022-09-28T02:18:35.307Z,7.40
2022-09-28T02:21:10.309Z,6.03
2022-09-28T02:23:42.634Z,5.28
2022-09-28T02:26:15.086Z,4.15
2022-09-28T02:28:44.514Z,4.80
2022-09-28T02:31:12.486Z,3.47
2022-09-28T02:33:44.734Z,4.63
2022-09-28T02:36:12.939Z,3.08
2022-09-28T02:38:40.954Z,2.70
2022-09-28T02:41:16.657Z,1.80
2022-09-28T02:43:54.251Z,2.00
2022-09-28T02:46:30.979Z,1.48
2022-09-28T02:49:21.899Z,2.25
2022-09-28T02:52:06.242Z,1.42
2022-09-28T02:54:52.968Z,2.67
2022-09-28T02:57:32.929Z,1.92
2022-09-28T03:00:08.454Z,1.85
2022-09-28T03:02:42.099Z,2.65
2022-09-28T03:05:20.599Z,1.90
2022-09-28T03:07:58.189Z,3.60
2022-09-28T03:10:32.055Z,2.58
2022-09-28T03:13:00.690Z,4.05
2022-09-28T03:15:31.710Z,2.20
2022-09-28T03:18:01.422Z,3.20
2022-09-28T03:20:31.527Z,2.53
2022-09-28T03:23:23.345Z,3.80
2022-09-28T03:25:48.207Z,3.65
2022-09-28T03:28:16.249Z,5.88
2022-09-28T03:30:45.513Z,5.10
2022-09-28T03:33:15.421Z,5.80
2022-09-28T03:35:43.410Z,6.45
2022-09-28T03:38:11.303Z,5.15
2022-09-28T03:40:39.999Z,5.45
2022-09-28T03:43:07.941Z,7.70
2022-09-28T03:45:36.035Z,8.63
2022-09-28T03:48:05.694Z,10.32
2022-09-28T03:50:35.352Z,9.18
2022-09-28T03:53:04.853Z,11.02
2022-09-28T03:55:32.814Z,13.32
2022-09-28T03:58:00.809Z,14.45
2022-09-28T04:00:28.892Z,13.82
2022-09-28T04:02:56.944Z,14.68
2022-09-28T04:05:26.254Z,17.05
2022-09-28T04:07:57.783Z,16.88
2022-09-28T04:10:26.516Z,19.85
2022-09-28T04:12:56.817Z,23.03
2022-09-28T04:15:25.986Z,20.98
2022-09-28T04:17:53.979Z,21.97
2022-09-28T04:20:48.092Z,22.90
2022-09-28T04:23:16.355Z,25.38
2022-09-28T04:25:48.664Z,24.75
2022-09-28T04:28:34.466Z,25.63
2022-09-28T04:31:02.470Z,26.25
2022-09-28T04:33:30.417Z,22.48
2022-09-28T04:36:00.790Z,22.88
2022-09-28T04:38:51.328Z,24.35
2022-09-28T04:41:17.705Z,25.48
2022-09-28T04:43:47.956Z,21.83
2022-09-28T04:46:16.733Z,24.73
2022-09-28T04:48:53.895Z,23.13
2022-09-28T04:51:47.052Z,27.27
2022-09-28T04:54:15.011Z,27.00
2022-09-28T04:56:44.127Z,21.93
2022-09-28T04:59:12.911Z,23.23
2022-09-28T05:01:42.170Z,25.25
2022-09-28T05:04:33.460Z,24.20
2022-09-28T05:07:19.282Z,23.42
2022-09-28T05:09:47.250Z,24.63
2022-09-28T05:12:16.298Z,26.27
2022-09-28T05:14:44.215Z,21.80
2022-09-28T05:17:12.146Z,27.40
2022-09-28T05:19:57.886Z,24.48
2022-09-28T05:22:27.256Z,24.52
2022-09-28T05:24:58.268Z,25.33
2022-09-28T05:27:28.586Z,22.13
2022-09-28T05:30:06.333Z,24.20
2022-09-28T05:32:57.672Z,23.30
2022-09-28T05:35:38.943Z,29.40
2022-09-28T05:38:08.516Z,24.60
2022-09-28T05:40:36.615Z,29.15
2022-09-28T05:43:04.802Z,24.70
2022-09-28T05:45:33.874Z,27.03
2022-09-28T05:50:31.819Z,27.65
2022-09-28T05:53:01.406Z,29.95
2022-09-28T05:55:31.470Z,26.00
2022-09-28T05:58:00.437Z,22.42
2022-09-28T06:00:28.781Z,27.58
2022-09-28T06:02:59.167Z,28.02
2022-09-28T06:05:27.540Z,25.13
2022-09-28T06:07:57.739Z,27.55
2022-09-28T06:10:26.158Z,26.85
2022-09-28T06:12:59.651Z,27.45
2022-09-28T06:15:29.355Z,25.67
2022-09-28T06:17:59.255Z,27.67
2022-09-28T06:20:38.585Z,25.10
2022-09-28T06:23:29.202Z,22.95
2022-09-28T06:25:57.351Z,25.63
2022-09-28T06:28:27.122Z,24.70
2022-09-28T06:33:23.330Z,22.73
2022-09-28T06:35:52.106Z,22.52
2022-09-28T06:38:20.354Z,21.67
2022-09-28T06:40:49.686Z,22.90
2022-09-28T06:43:17.975Z,24.52
2022-09-28T06:46:11.157Z,22.88
2022-09-28T06:49:03.410Z,22.92
2022-09-28T06:51:53.919Z,21.48
2022-09-28T06:57:31.667Z,21.33
2022-09-28T06:59:59.647Z,23.92
2022-09-28T07:02:28.942Z,21.38
2022-09-28T07:05:13.791Z,19.77
2022-09-28T07:08:00.033Z,19.80
2022-09-28T07:10:56.286Z,20.98
2022-09-28T07:13:50.395Z,20.63
2022-09-28T07:16:27.877Z,22.40
2022-09-28T07:19:01.548Z,17.85
2022-09-28T07:21:30.762Z,21.00
2022-09-28T07:24:02.328Z,17.33
2022-09-28T07:26:52.928Z,18.70
2022-09-28T07:29:35.560Z,19.48
2022-09-28T07:32:39.031Z,19.98
2022-09-28T07:35:37.520Z,20.33
2022-09-28T07:38:07.202Z,17.20
2022-09-28T07:40:53.953Z,17.30
2022-09-28T07:43:22.985Z,16.13
2022-09-28T07:45:55.716Z,17.25
2022-09-28T07:48:24.748Z,18.95
2022-09-28T07:51:08.459Z,15.82
2022-09-28T07:53:48.065Z,15.32
2022-09-28T07:56:19.594Z,15.23
2022-09-28T07:59:26.354Z,16.17
2022-09-28T08:02:14.160Z,16.73
2022-09-28T08:04:43.021Z,16.65
2022-09-28T08:07:12.782Z,16.33
2022-09-28T08:09:41.659Z,16.35
2022-09-28T08:12:33.027Z,16.85
2022-09-28T08:15:24.245Z,13.65
2022-09-28T08:18:02.008Z,16.08
2022-09-28T08:20:51.685Z,14.18
2022-09-28T08:23:21.907Z,15.05
2022-09-28T08:25:53.094Z,17.75
2022-09-28T08:28:23.187Z,17.33
2022-09-28T08:30:55.512Z,16.70
2022-09-28T08:33:32.768Z,20.63
2022-09-28T08:36:19.311Z,15.52
2022-09-28T08:39:03.620Z,14.50
2022-09-28T08:41:59.269Z,14.80
2022-09-28T08:44:59.019Z,13.02
2022-09-28T08:48:29.630Z,16.08
2022-09-28T08:51:26.804Z,15.15
2022-09-28T08:54:31.794Z,14.50
2022-09-28T08:57:05.567Z,15.85
2022-09-28T08:59:47.936Z,14.40
2022-09-28T09:02:25.521Z,13.80
2022-09-28T09:04:57.490Z,13.90
2022-09-28T09:08:08.794Z,12.88
2022-09-28T09:10:50.133Z,12.77
2022-09-28T09:13:43.398Z,12.75
2022-09-28T09:16:22.641Z,11.07
2022-09-28T09:19:35.593Z,13.20
2022-09-28T09:22:41.896Z,11.40
2022-09-28T09:25:20.944Z,11.77
2022-09-28T09:28:26.288Z,12.60
2022-09-28T09:31:08.447Z,12.75
2022-09-28T09:34:03.641Z,9.93
2022-09-28T09:37:19.077Z,13.13
2022-09-28T09:40:33.141Z,9.75
2022-09-28T09:43:40.417Z,8.98
2022-09-28T09:46:37.501Z,7.60
2022-09-28T09:49:47.546Z,9.35
2022-09-28T09:52:22.506Z,8.93
2022-09-28T09:54:58.049Z,7.32
2022-09-28T09:57:44.093Z,9.23
2022-09-28T10:00:35.048Z,7.32
2022-09-28T10:03:22.211Z,7.47
2022-09-28T10:05:56.714Z,8.65
2022-09-28T10:08:26.955Z,6.57
2022-09-28T10:11:05.727Z,9.27
2022-09-28T10:13:35.114Z,6.85
2022-09-28T10:16:10.819Z,6.97
2022-09-28T10:18:49.799Z,9.50
2022-09-28T10:21:50.374Z,7.97
2022-09-28T10:24:31.239Z,7.35
2022-09-28T10:27:06.278Z,8.38
2022-09-28T10:29:45.750Z,6.72
2022-09-28T10:32:23.920Z,8.13
2022-09-28T10:35:12.175Z,7.38
2022-09-28T10:37:52.471Z,7.50
2022-09-28T10:40:43.552Z,8.50
2022-09-28T10:43:21.653Z,7.70
2022-09-28T10:46:00.574Z,8.98
2022-09-28T10:48:34.318Z,7.75
2022-09-28T10:51:06.637Z,7.00
2022-09-28T10:53:37.471Z,7.47
2022-09-28T10:58:40.658Z,8.32
2022-09-28T11:01:15.251Z,6.65
2022-09-28T11:03:54.420Z,7.82
2022-09-28T11:06:27.942Z,5.55
2022-09-28T11:08:59.392Z,6.38
2022-09-28T11:11:31.619Z,6.53
2022-09-28T11:14:05.432Z,4.65
2022-09-28T11:16:37.538Z,4.97
2022-09-28T11:21:55.891Z,4.68
2022-09-28T11:24:32.262Z,5.07
2022-09-28T11:27:03.926Z,3.53
2022-09-28T11:29:38.283Z,3.65
2022-09-28T11:35:26.599Z,6.72
2022-09-28T11:38:19.677Z,4.88
2022-09-28T11:41:38.633Z,4.28
2022-09-28T11:44:28.188Z,4.20
2022-09-28T11:47:21.891Z,3.88
2022-09-28T11:49:56.198Z,4.03
2022-09-28T11:52:29.136Z,4.05
2022-09-28T11:55:02.676Z,6.25
2022-09-28T11:57:36.761Z,5.10
2022-09-28T12:00:09.158Z,4.10
2022-09-28T12:02:50.399Z,5.68
2022-09-28T12:05:25.165Z,5.97
2022-09-28T12:07:58.244Z,4.35
2022-09-28T12:11:07.159Z,4.65
2022-09-28T12:13:57.561Z,5.25
2022-09-28T12:17:05.035Z,4.85
2022-09-28T12:19:23.847Z,4.70
2022-09-28T12:21:57.463Z,5.05
2022-09-28T12:24:32.183Z,3.67
2022-09-28T12:27:06.001Z,4.95
2022-09-28T12:29:41.185Z,4.60
2022-09-28T12:32:16.053Z,3.90
2022-09-28T12:34:44.613Z,4.00
2022-09-28T12:37:31.015Z,5.32
2022-09-28T12:40:28.801Z,4.15
2022-09-28T12:43:11.820Z,4.55
2022-09-28T12:46:11.377Z,5.43
2022-09-28T12:52:28.133Z,6.28
2022-09-28T12:55:32.396Z,6.40
2022-09-28T12:58:15.201Z,6.47
2022-09-28T13:00:53.548Z,8.10
2022-09-28T13:03:49.042Z,8.50
2022-09-28T13:06:38.986Z,6.78
2022-09-28T13:12:02.167Z,10.48
2022-09-28T13:14:54.458Z,10.07
2022-09-28T13:17:40.228Z,10.15
2022-09-28T13:20:23.346Z,9.77
2022-09-28T13:22:58.576Z,9.93
2022-09-28T13:25:31.140Z,9.27
2022-09-28T13:28:03.652Z,11.13
2022-09-28T13:30:33.691Z,10.25
2022-09-28T13:33:03.798Z,11.55
2022-09-28T13:35:33.361Z,10.55
2022-09-28T13:38:47.273Z,9.77
2022-09-28T13:41:18.899Z,8.93
2022-09-28T13:44:02.802Z,10.60
2022-09-28T13:46:38.161Z,9.30
2022-09-28T13:49:16.776Z,9.80
2022-09-28T13:51:55.563Z,8.13
2022-09-28T13:55:05.173Z,7.43
2022-09-28T13:57:42.775Z,12.50
2022-09-28T14:00:21.901Z,8.23
2022-09-28T14:02:55.384Z,8.25
2022-09-28T14:05:47.547Z,7.93
2022-09-28T14:08:31.450Z,8.15
2022-09-28T14:11:42.028Z,5.53
2022-09-28T14:14:42.074Z,6.93
2022-09-28T14:17:50.597Z,6.30
2022-09-28T14:20:26.438Z,6.05
2022-09-28T14:23:18.787Z,7.90
2022-09-28T14:25:59.983Z,8.38
2022-09-28T14:28:44.052Z,7.10
2022-09-28T14:31:21.790Z,8.05
2022-09-28T14:33:58.013Z,7.43
2022-09-28T14:36:47.484Z,6.78
2022-09-28T14:39:39.420Z,6.60
2022-09-28T14:42:15.759Z,9.20
2022-09-28T14:45:20.723Z,7.72
2022-09-28T15:08:23.681Z,4.50
2022-09-28T15:10:52.911Z,5.50
2022-09-28T15:13:29.379Z,3.83
2022-09-28T15:19:24.111Z,3.63
2022-09-28T15:44:07.200Z,5.15
2022-09-28T15:46:37.871Z,4.60
2022-09-28T15:49:07.568Z,5.65
2022-09-28T15:51:48.485Z,6.57
2022-09-28T15:54:19.744Z,6.32
2022-09-28T15:56:59.555Z,4.05
2022-09-28T15:59:31.956Z,5.47
2022-09-28T16:02:08.311Z,6.05
2022-09-28T16:04:39.267Z,3.88
2022-09-28T16:07:27.849Z,4.25
2022-09-28T16:10:01.889Z,5.03
2022-09-28T16:12:43.194Z,3.17
2022-09-28T16:15:21.248Z,4.32
2022-09-28T16:17:52.251Z,3.67
2022-09-28T16:20:27.732Z,5.32
2022-09-28T16:22:56.862Z,6.00
2022-09-28T16:25:27.370Z,5.18
2022-09-28T16:27:56.558Z,4.28
2022-09-28T16:30:28.830Z,4.22
2022-09-28T16:32:58.105Z,4.90
2022-09-28T16:35:31.814Z,5.93
2022-09-28T16:38:13.748Z,4.13
2022-09-28T16:40:42.940Z,4.97
2022-09-28T16:43:20.396Z,5.32
2022-09-28T16:45:51.271Z,5.00
2022-09-28T16:48:19.410Z,3.70
2022-09-28T16:50:47.441Z,6.20
2022-09-28T16:53:34.807Z,7.68
2022-09-28T16:56:03.884Z,3.95
2022-09-28T16:58:32.056Z,5.70
2022-09-28T17:01:02.162Z,4.68
2022-09-28T17:03:30.520Z,4.32
2022-09-28T17:05:58.519Z,5.60
2022-09-28T17:08:26.789Z,4.47
2022-09-28T17:11:13.853Z,4.15
2022-09-28T17:13:43.661Z,4.53
2022-09-28T17:16:15.032Z,5.25
2022-09-28T17:18:43.192Z,7.68
2022-09-28T17:21:15.829Z,4.53
2022-09-28T17:23:44.444Z,6.20
2022-09-28T17:26:20.116Z,4.60
2022-09-28T17:28:48.125Z,6.32
2022-09-28T17:31:17.974Z,6.70
2022-09-28T17:36:16.048Z,6.10
2022-09-28T17:38:44.251Z,6.00
2022-09-28T17:41:18.043Z,9.95
2022-09-28T17:43:48.355Z,10.88
2022-09-28T17:46:26.834Z,10.05
2022-09-28T17:48:55.157Z,9.30
2022-09-28T17:51:23.895Z,12.63
2022-09-28T17:53:52.621Z,8.80
2022-09-28T17:56:20.575Z,11.63
2022-09-28T17:58:48.643Z,12.82
2022-09-28T18:01:16.959Z,8.82
2022-09-28T18:03:46.324Z,9.43
2022-09-28T18:06:16.911Z,9.88
2022-09-28T18:08:44.761Z,8.23
2022-09-28T18:11:12.918Z,7.88
2022-09-28T18:13:40.882Z,8.60
2022-09-28T18:16:09.648Z,7.95
2022-09-28T18:18:39.949Z,9.32
2022-09-28T18:21:09.683Z,7.90
2022-09-28T18:23:38.089Z,10.23
2022-09-28T18:26:06.536Z,9.40
2022-09-28T18:28:34.500Z,13.90
2022-09-28T18:31:08.401Z,11.57
2022-09-28T18:33:52.281Z,15.80
2022-09-28T18:36:21.772Z,15.15
2022-09-28T18:38:50.219Z,20.13
2022-09-28T18:41:18.271Z,14.80
2022-09-28T18:43:50.427Z,15.02
2022-09-28T18:46:19.215Z,17.08
2022-09-28T18:48:47.944Z,16.67
2022-09-28T18:51:16.231Z,15.65
2022-09-28T18:53:45.658Z,16.17
2022-09-28T18:56:17.133Z,16.83
2022-09-28T18:58:46.417Z,19.23
2022-09-28T19:01:32.266Z,16.10
2022-09-28T19:04:01.315Z,17.60
2022-09-28T19:06:30.146Z,16.45
2022-09-28T19:09:00.105Z,16.65
2022-09-28T19:11:29.034Z,14.93
2022-09-28T19:13:57.486Z,17.38
2022-09-28T19:16:28.497Z,15.15
2022-09-28T19:18:57.608Z,17.55
2022-09-28T19:21:26.832Z,14.40
2022-09-28T19:23:55.553Z,14.32
2022-09-28T19:26:27.477Z,15.13
2022-09-28T19:28:56.755Z,12.88
2022-09-28T19:31:25.288Z,13.57
2022-09-28T19:33:53.362Z,12.60
2022-09-28T19:36:23.734Z,13.27
2022-09-28T19:38:52.793Z,13.57
2022-09-28T19:41:39.476Z,13.27
2022-09-28T19:46:42.145Z,13.00
2022-09-28T19:49:11.844Z,13.93
2022-09-28T19:51:51.585Z,14.52
2022-09-28T19:54:32.068Z,13.80
2022-09-28T19:57:07.674Z,12.75
2022-09-28T19:59:38.046Z,13.88
2022-09-28T20:04:34.508Z,12.07
2022-09-28T20:07:03.784Z,12.13
2022-09-28T20:09:32.669Z,11.75
2022-09-28T20:12:00.683Z,15.40
2022-09-28T20:14:33.142Z,15.30
2022-09-28T20:17:06.066Z,13.10
2022-09-28T20:19:35.131Z,16.73
2022-09-28T20:22:03.509Z,15.13
2022-09-28T20:24:31.678Z,15.35
2022-09-28T20:27:01.380Z,17.23
2022-09-28T20:29:31.650Z,16.27
2022-09-28T20:32:00.431Z,17.98
2022-09-28T20:34:29.764Z,17.77
2022-09-28T20:36:57.832Z,17.65
2022-09-28T20:39:26.474Z,18.42
2022-09-28T20:41:55.600Z,22.75
2022-09-28T20:44:23.481Z,18.97
2022-09-28T20:46:52.323Z,18.38
2022-09-28T20:49:20.395Z,19.92
2022-09-28T20:51:49.792Z,20.40
2022-09-28T20:54:17.804Z,19.48
2022-09-28T20:56:48.088Z,18.75
2022-09-28T20:59:16.295Z,20.02
2022-09-28T21:01:44.935Z,18.85
2022-09-28T21:04:13.207Z,15.75
2022-09-28T21:06:45.270Z,18.35
2022-09-28T21:09:14.619Z,18.55
2022-09-28T21:11:43.043Z,20.08
2022-09-28T21:14:11.177Z,21.65
2022-09-28T21:16:39.900Z,19.52
2022-09-28T21:19:07.941Z,18.65
2022-09-28T21:21:35.948Z,18.05
2022-09-28T21:24:04.002Z,20.30
2022-09-28T21:26:33.484Z,17.80
2022-09-28T21:31:33.788Z,20.45
2022-09-28T21:34:01.841Z,18.95
2022-09-28T21:36:29.769Z,23.13
2022-09-28T21:38:57.805Z,18.70
2022-09-28T21:41:26.333Z,20.38
2022-09-28T21:43:55.636Z,20.70
2022-09-28T21:46:24.811Z,19.73
2022-09-28T21:48:53.775Z,19.42
2022-09-28T21:51:21.852Z,18.63
2022-09-28T21:53:50.312Z,20.33
2022-09-28T21:56:18.622Z,25.05
2022-09-28T21:58:46.540Z,17.77
2022-09-28T22:01:19.506Z,19.13
2022-09-28T22:03:50.448Z,19.38
2022-09-28T22:06:20.929Z,20.60
2022-09-28T22:08:49.443Z,22.70
2022-09-28T22:11:19.443Z,20.50
2022-09-28T22:16:18.856Z,19.60
2022-09-28T22:18:47.175Z,21.60
2022-09-28T22:21:17.518Z,22.65
2022-09-28T22:23:46.280Z,20.52
2022-09-28T22:26:17.961Z,21.85
2022-09-28T22:28:47.962Z,19.35
2022-09-28T22:31:18.624Z,20.00
2022-09-28T22:33:46.784Z,20.33
2022-09-28T22:36:17.031Z,18.50
2022-09-28T22:38:45.674Z,21.73
2022-09-28T22:41:15.903Z,18.33
2022-09-28T22:43:44.050Z,19.35
2022-09-28T22:46:14.776Z,19.52
2022-09-28T22:48:47.882Z,18.60
2022-09-28T22:51:16.625Z,19.88
2022-09-28T22:53:44.808Z,21.63
2022-09-28T22:56:18.168Z,20.33
2022-09-28T22:58:47.014Z,20.58
2022-09-28T23:01:17.266Z,21.38
2022-09-28T23:03:47.228Z,20.13
2022-09-28T23:06:17.084Z,20.70
2022-09-28T23:08:45.612Z,20.42
2022-09-28T23:11:13.557Z,18.83
2022-09-28T23:13:41.562Z,21.67
2022-09-28T23:16:12.309Z,21.00
2022-09-28T23:18:41.793Z,19.52
2022-09-28T23:21:13.005Z,17.55
2022-09-28T23:23:40.903Z,17.88
2022-09-28T23:26:13.142Z,18.23
2022-09-28T23:28:41.365Z,18.20
2022-09-28T23:31:10.795Z,17.92
2022-09-28T23:33:38.883Z,15.50
2022-09-28T23:36:07.806Z,17.80
2022-09-28T23:38:37.204Z,18.70
2022-09-28T23:41:05.557Z,23.63
2022-09-28T23:43:33.551Z,18.23
2022-09-28T23:46:01.940Z,17.65
2022-09-28T23:48:30.182Z,19.95
2022-09-28T23:50:58.158Z,18.33
2022-09-28T23:53:26.316Z,17.73
2022-09-28T23:55:55.996Z,17.33
2022-09-28T23:58:24.058Z,18.05
